sensor_id;sensor_type;location;lat;lon;timestamp;pressure;altitude;pressure_sealevel;temperature;humidity
80945;BME280;70400;50.934;11.590;2023-07-20T00:00:37;99719.41;;;16.49;75.22
80945;BME280;70400;50.934;11.590;2023-07-20T00:01:28;99713.31;;;16.34;76.36
80945;BME280;70400;50.934;11.590;2023-07-20T00:02:19;99716.03;;;16.41;75.17
80945;BME280;70400;50.934;11.590;2023-07-20T00:03:11;99709.56;;;16.28;75.98
80945;BME280;70400;50.934;11.590;2023-07-20T00:04:07;99709.75;;;16.27;76.10
80945;BME280;70400;50.934;11.590;2023-07-20T00:04:58;99714.25;;;16.26;76.33
80945;BME280;70400;50.934;11.590;2023-07-20T00:05:49;99708.53;;;16.30;76.87
80945;BME280;70400;50.934;11.590;2023-07-20T00:06:40;99709.56;;;16.28;76.04
80945;BME280;70400;50.934;11.590;2023-07-20T00:07:31;99711.19;;;16.30;76.63
80945;BME280;70400;50.934;11.590;2023-07-20T00:08:22;99705.78;;;16.23;77.26
80945;BME280;70400;50.934;11.590;2023-07-20T00:09:13;99704.28;;;16.14;77.15
80945;BME280;70400;50.934;11.590;2023-07-20T00:10:04;99709.22;;;16.17;77.38
80945;BME280;70400;50.934;11.590;2023-07-20T00:10:55;99703.34;;;16.21;76.97
80945;BME280;70400;50.934;11.590;2023-07-20T00:11:50;99704.00;;;16.09;77.69
80945;BME280;70400;50.934;11.590;2023-07-20T00:12:42;99705.84;;;16.08;77.32
80945;BME280;70400;50.934;11.590;2023-07-20T00:13:38;99712.50;;;16.19;76.58
80945;BME280;70400;50.934;11.590;2023-07-20T00:14:29;99705.63;;;16.24;76.79
80945;BME280;70400;50.934;11.590;2023-07-20T00:15:19;99701.94;;;16.25;76.83
80945;BME280;70400;50.934;11.590;2023-07-20T00:16:10;99706.47;;;16.10;77.05
80945;BME280;70400;50.934;11.590;2023-07-20T00:17:02;99700.41;;;16.16;76.94
80945;BME280;70400;50.934;11.590;2023-07-20T00:17:53;99702.88;;;16.18;77.12
80945;BME280;70400;50.934;11.590;2023-07-20T00:18:44;99706.09;;;16.13;77.75
80945;BME280;70400;50.934;11.590;2023-07-20T00:19:34;99705.84;;;16.08;77.26
80945;BME280;70400;50.934;11.590;2023-07-20T00:20:25;99707.47;;;16.09;77.36
80945;BME280;70400;50.934;11.590;2023-07-20T00:21:16;99710.31;;;16.08;77.26
80945;BME280;70400;50.934;11.590;2023-07-20T00:22:07;99711.06;;;16.01;77.54
80945;BME280;70400;50.934;11.590;2023-07-20T00:22:58;99706.84;;;16.07;77.90
80945;BME280;70400;50.934;11.590;2023-07-20T00:23:49;99709.13;;;16.10;77.60
80945;BME280;70400;50.934;11.590;2023-07-20T00:24:40;99705.84;;;16.08;77.73
80945;BME280;70400;50.934;11.590;2023-07-20T00:25:30;99708.19;;;16.18;77.12
80945;BME280;70400;50.934;11.590;2023-07-20T00:26:21;99710.13;;;16.09;77.33
80945;BME280;70400;50.934;11.590;2023-07-20T00:27:15;99702.72;;;16.04;77.97
80945;BME280;70400;50.934;11.590;2023-07-20T00:28:06;99701.88;;;16.04;77.93
80945;BME280;70400;50.934;11.590;2023-07-20T00:28:57;99700.00;;;15.98;77.91
80945;BME280;70400;50.934;11.590;2023-07-20T00:29:48;99699.06;;;15.91;79.22
80945;BME280;70400;50.934;11.590;2023-07-20T00:30:38;99700.97;;;15.82;79.68
80945;BME280;70400;50.934;11.590;2023-07-20T00:31:32;99696.84;;;15.79;79.77
80945;BME280;70400;50.934;11.590;2023-07-20T00:32:23;99693.59;;;15.77;79.65
80945;BME280;70400;50.934;11.590;2023-07-20T00:33:17;99702.28;;;15.71;79.27
80945;BME280;70400;50.934;11.590;2023-07-20T00:34:08;99695.13;;;15.72;78.94
80945;BME280;70400;50.934;11.590;2023-07-20T00:34:59;99693.00;;;15.82;78.88
80945;BME280;70400;50.934;11.590;2023-07-20T00:35:50;99702.81;;;15.81;78.67
80945;BME280;70400;50.934;11.590;2023-07-20T00:36:41;99692.66;;;15.85;78.46
80945;BME280;70400;50.934;11.590;2023-07-20T00:37:32;99693.66;;;15.84;78.42
80945;BME280;70400;50.934;11.590;2023-07-20T00:38:23;99696.13;;;15.86;78.28
80945;BME280;70400;50.934;11.590;2023-07-20T00:39:13;99698.97;;;15.84;78.25
80945;BME280;70400;50.934;11.590;2023-07-20T00:40:05;99700.44;;;15.87;78.34
80945;BME280;70400;50.934;11.590;2023-07-20T00:40:58;99707.78;;;15.84;77.88
80945;BME280;70400;50.934;11.590;2023-07-20T00:41:49;99706.94;;;15.84;77.98
80945;BME280;70400;50.934;11.590;2023-07-20T00:42:41;99716.38;;;15.87;78.57
80945;BME280;70400;50.934;11.590;2023-07-20T00:43:32;99716.00;;;15.90;77.48
80945;BME280;70400;50.934;11.590;2023-07-20T00:44:23;99713.47;;;15.81;77.82
80945;BME280;70400;50.934;11.590;2023-07-20T00:45:16;99713.56;;;15.73;78.33
80945;BME280;70400;50.934;11.590;2023-07-20T00:46:09;99704.75;;;15.73;78.56
80945;BME280;70400;50.934;11.590;2023-07-20T00:47:00;99709.66;;;15.61;79.04
80945;BME280;70400;50.934;11.590;2023-07-20T00:47:51;99709.13;;;15.66;78.67
80945;BME280;70400;50.934;11.590;2023-07-20T00:48:43;99707.00;;;15.61;78.70
80945;BME280;70400;50.934;11.590;2023-07-20T00:49:34;99704.53;;;15.59;78.56
80945;BME280;70400;50.934;11.590;2023-07-20T00:50:25;99700.66;;;15.62;78.49
80945;BME280;70400;50.934;11.590;2023-07-20T00:51:16;99705.81;;;15.63;78.74
80945;BME280;70400;50.934;11.590;2023-07-20T00:52:10;99698.59;;;15.57;78.48
80945;BME280;70400;50.934;11.590;2023-07-20T00:53:04;99703.25;;;15.55;78.53
80945;BME280;70400;50.934;11.590;2023-07-20T00:53:58;99698.38;;;15.59;78.95
80945;BME280;70400;50.934;11.590;2023-07-20T00:54:49;99704.19;;;15.62;78.14
80945;BME280;70400;50.934;11.590;2023-07-20T00:55:40;99706.56;;;15.57;78.64
80945;BME280;70400;50.934;11.590;2023-07-20T00:56:31;99702.22;;;15.56;78.12
80945;BME280;70400;50.934;11.590;2023-07-20T00:57:23;99698.66;;;15.64;77.90
80945;BME280;70400;50.934;11.590;2023-07-20T00:58:16;99711.94;;;15.64;77.65
80945;BME280;70400;50.934;11.590;2023-07-20T00:59:07;99712.69;;;15.58;78.20
80945;BME280;70400;50.934;11.590;2023-07-20T00:59:58;99709.03;;;15.59;78.67
80945;BME280;70400;50.934;11.590;2023-07-20T01:00:49;99705.53;;;15.58;78.46
80945;BME280;70400;50.934;11.590;2023-07-20T01:01:42;99710.94;;;15.50;78.98
80945;BME280;70400;50.934;11.590;2023-07-20T01:02:34;99709.47;;;15.48;78.91
80945;BME280;70400;50.934;11.590;2023-07-20T01:03:24;99711.59;;;15.52;78.93
80945;BME280;70400;50.934;11.590;2023-07-20T01:04:15;99710.84;;;15.58;77.60
80945;BME280;70400;50.934;11.590;2023-07-20T01:05:07;99706.72;;;15.56;77.86
80945;BME280;70400;50.934;11.590;2023-07-20T01:08:13;99709.75;;;15.53;78.69
80945;BME280;70400;50.934;11.590;2023-07-20T01:10:27;99708.56;;;15.40;78.16
80945;BME280;70400;50.934;11.590;2023-07-20T01:11:31;99708.09;;;15.37;78.60
80945;BME280;70400;50.934;11.590;2023-07-20T01:12:46;99706.16;;;15.46;78.31
80945;BME280;70400;50.934;11.590;2023-07-20T01:13:37;99706.91;;;15.39;77.81
80945;BME280;70400;50.934;11.590;2023-07-20T01:14:29;99701.88;;;15.45;78.32
80945;BME280;70400;50.934;11.590;2023-07-20T01:15:20;99700.84;;;15.46;77.71
80945;BME280;70400;50.934;11.590;2023-07-20T01:16:12;99698.19;;;15.46;78.05
80945;BME280;70400;50.934;11.590;2023-07-20T01:17:03;99702.50;;;15.47;78.19
80945;BME280;70400;50.934;11.590;2023-07-20T01:17:54;99693.25;;;15.43;78.04
80945;BME280;70400;50.934;11.590;2023-07-20T01:18:45;99694.19;;;15.50;77.97
80945;BME280;70400;50.934;11.590;2023-07-20T01:19:35;99693.25;;;15.43;79.10
80945;BME280;70400;50.934;11.590;2023-07-20T01:20:27;99698.75;;;15.41;77.83
80945;BME280;70400;50.934;11.590;2023-07-20T01:21:24;99693.34;;;15.49;77.40
80945;BME280;70400;50.934;11.590;2023-07-20T01:24:11;99688.88;;;15.50;77.78
80945;BME280;70400;50.934;11.590;2023-07-20T01:25:22;99692.31;;;15.35;78.24
80945;BME280;70400;50.934;11.590;2023-07-20T01:30:13;99690.81;;;15.18;78.47
80945;BME280;70400;50.934;11.590;2023-07-20T01:32:16;99687.31;;;15.03;79.39
80945;BME280;70400;50.934;11.590;2023-07-20T01:33:08;99685.75;;;15.08;78.17
80945;BME280;70400;50.934;11.590;2023-07-20T01:34:00;99691.94;;;15.09;77.66
80945;BME280;70400;50.934;11.590;2023-07-20T01:34:54;99689.31;;;15.01;78.17
80945;BME280;70400;50.934;11.590;2023-07-20T01:35:49;99695.34;;;14.94;78.44
80945;BME280;70400;50.934;11.590;2023-07-20T01:36:42;99689.69;;;14.97;79.01
80945;BME280;70400;50.934;11.590;2023-07-20T01:37:33;99684.72;;;14.94;79.08
80945;BME280;70400;50.934;11.590;2023-07-20T01:38:25;99682.38;;;15.00;78.06
80945;BME280;70400;50.934;11.590;2023-07-20T01:39:17;99689.25;;;15.09;78.02
80945;BME280;70400;50.934;11.590;2023-07-20T01:40:10;99686.78;;;15.07;78.57
80945;BME280;70400;50.934;11.590;2023-07-20T01:41:01;99683.00;;;15.02;79.16
80945;BME280;70400;50.934;11.590;2023-07-20T01:41:53;99688.22;;;14.95;78.96
80945;BME280;70400;50.934;11.590;2023-07-20T01:42:45;99695.63;;;15.00;79.04
80945;BME280;70400;50.934;11.590;2023-07-20T01:43:37;99688.31;;;15.02;78.12
80945;BME280;70400;50.934;11.590;2023-07-20T01:44:28;99696.66;;;14.98;77.96
80945;BME280;70400;50.934;11.590;2023-07-20T01:45:20;99692.34;;;14.97;78.74
80945;BME280;70400;50.934;11.590;2023-07-20T01:46:11;99690.75;;;14.88;78.77
80945;BME280;70400;50.934;11.590;2023-07-20T01:47:01;99692.47;;;14.81;79.07
80945;BME280;70400;50.934;11.590;2023-07-20T01:47:52;99690.88;;;14.72;79.51
80945;BME280;70400;50.934;11.590;2023-07-20T01:48:43;99690.22;;;14.70;79.77
80945;BME280;70400;50.934;11.590;2023-07-20T01:49:34;99688.94;;;14.66;80.21
80945;BME280;70400;50.934;11.590;2023-07-20T01:50:24;99691.41;;;14.67;79.70
80945;BME280;70400;50.934;11.590;2023-07-20T01:51:16;99686.28;;;14.66;79.46
80945;BME280;70400;50.934;11.590;2023-07-20T01:52:08;99696.59;;;14.61;79.54
80945;BME280;70400;50.934;11.590;2023-07-20T01:52:59;99693.22;;;14.67;79.56
80945;BME280;70400;50.934;11.590;2023-07-20T01:53:50;99689.28;;;14.63;79.70
80945;BME280;70400;50.934;11.590;2023-07-20T01:54:40;99689.28;;;14.63;79.98
80945;BME280;70400;50.934;11.590;2023-07-20T01:55:31;99694.78;;;14.61;80.38
80945;BME280;70400;50.934;11.590;2023-07-20T01:56:22;99697.44;;;14.61;79.62
80945;BME280;70400;50.934;11.590;2023-07-20T01:57:13;99695.88;;;14.67;79.41
80945;BME280;70400;50.934;11.590;2023-07-20T01:58:04;99690.41;;;14.68;79.77
80945;BME280;70400;50.934;11.590;2023-07-20T01:58:56;99697.81;;;14.73;79.57
80945;BME280;70400;50.934;11.590;2023-07-20T01:59:47;99694.19;;;14.74;79.49
80945;BME280;70400;50.934;11.590;2023-07-20T02:00:38;99693.41;;;14.65;80.00
80945;BME280;70400;50.934;11.590;2023-07-20T02:01:29;99695.22;;;14.65;80.18
80945;BME280;70400;50.934;11.590;2023-07-20T02:02:20;99696.84;;;14.74;79.53
80945;BME280;70400;50.934;11.590;2023-07-20T02:03:11;99694.53;;;14.71;80.25
80945;BME280;70400;50.934;11.590;2023-07-20T02:04:02;99694.06;;;14.67;80.05
80945;BME280;70400;50.934;11.590;2023-07-20T02:04:53;99688.09;;;14.65;79.43
80945;BME280;70400;50.934;11.590;2023-07-20T02:05:44;99689.47;;;14.61;80.24
80945;BME280;70400;50.934;11.590;2023-07-20T02:06:35;99686.63;;;14.63;80.44
80945;BME280;70400;50.934;11.590;2023-07-20T02:07:26;99691.94;;;14.63;80.05
80945;BME280;70400;50.934;11.590;2023-07-20T02:08:17;99689.56;;;14.68;79.42
80945;BME280;70400;50.934;11.590;2023-07-20T02:09:09;99688.22;;;14.72;79.59
80945;BME280;70400;50.934;11.590;2023-07-20T02:09:59;99688.97;;;14.81;79.43
80945;BME280;70400;50.934;11.590;2023-07-20T02:10:51;99690.03;;;14.94;79.42
80945;BME280;70400;50.934;11.590;2023-07-20T02:11:42;99689.03;;;14.95;78.80
80945;BME280;70400;50.934;11.590;2023-07-20T02:12:32;99701.47;;;14.95;78.25
80945;BME280;70400;50.934;11.590;2023-07-20T02:13:23;99700.50;;;14.96;78.44
80945;BME280;70400;50.934;11.590;2023-07-20T02:14:16;99702.50;;;14.94;77.99
80945;BME280;70400;50.934;11.590;2023-07-20T02:15:07;99699.56;;;14.89;78.51
80945;BME280;70400;50.934;11.590;2023-07-20T02:15:59;99699.31;;;14.98;78.18
80945;BME280;70400;50.934;11.590;2023-07-20T02:16:50;99703.97;;;14.96;78.10
80945;BME280;70400;50.934;11.590;2023-07-20T02:17:43;99703.31;;;14.94;78.83
80945;BME280;70400;50.934;11.590;2023-07-20T02:18:34;99704.50;;;14.92;77.97
80945;BME280;70400;50.934;11.590;2023-07-20T02:19:27;99704.78;;;14.97;77.77
80945;BME280;70400;50.934;11.590;2023-07-20T02:20:18;99703.69;;;14.91;77.48
80945;BME280;70400;50.934;11.590;2023-07-20T02:21:09;99715.94;;;14.92;77.92
80945;BME280;70400;50.934;11.590;2023-07-20T02:22:01;99709.03;;;14.83;78.64
80945;BME280;70400;50.934;11.590;2023-07-20T02:22:52;99707.09;;;14.77;78.94
80945;BME280;70400;50.934;11.590;2023-07-20T02:23:42;99702.66;;;14.69;79.50
80945;BME280;70400;50.934;11.590;2023-07-20T02:24:34;99704.88;;;14.66;79.39
80945;BME280;70400;50.934;11.590;2023-07-20T02:25:25;99702.50;;;14.71;79.33
80945;BME280;70400;50.934;11.590;2023-07-20T02:26:15;99703.97;;;14.73;79.39
80945;BME280;70400;50.934;11.590;2023-07-20T02:27:07;99709.38;;;14.80;78.74
80945;BME280;70400;50.934;11.590;2023-07-20T02:27:58;99703.91;;;14.82;78.90
80945;BME280;70400;50.934;11.590;2023-07-20T02:28:49;99715.34;;;14.82;78.94
80945;BME280;70400;50.934;11.590;2023-07-20T02:29:40;99711.69;;;14.83;79.18
80945;BME280;70400;50.934;11.590;2023-07-20T02:30:34;99710.03;;;14.82;78.22
80945;BME280;70400;50.934;11.590;2023-07-20T02:31:27;99709.16;;;14.90;78.35
80945;BME280;70400;50.934;11.590;2023-07-20T02:32:18;99711.94;;;14.96;78.24
80945;BME280;70400;50.934;11.590;2023-07-20T02:33:09;99707.03;;;14.85;79.46
80945;BME280;70400;50.934;11.590;2023-07-20T02:34:00;99706.69;;;14.88;78.80
80945;BME280;70400;50.934;11.590;2023-07-20T02:34:51;99707.03;;;14.85;79.24
80945;BME280;70400;50.934;11.590;2023-07-20T02:35:44;99703.72;;;14.83;79.97
80945;BME280;70400;50.934;11.590;2023-07-20T02:36:35;99710.03;;;14.82;79.68
80945;BME280;70400;50.934;11.590;2023-07-20T02:37:26;99708.50;;;14.88;77.97
80945;BME280;70400;50.934;11.590;2023-07-20T02:38:17;99710.09;;;14.97;78.34
80945;BME280;70400;50.934;11.590;2023-07-20T02:39:09;99710.69;;;15.07;79.45
80945;BME280;70400;50.934;11.590;2023-07-20T02:40:00;99707.72;;;15.02;79.93
80945;BME280;70400;50.934;11.590;2023-07-20T02:40:51;99716.59;;;14.94;80.06
80945;BME280;70400;50.934;11.590;2023-07-20T02:41:42;99715.19;;;15.07;79.47
80945;BME280;70400;50.934;11.590;2023-07-20T02:42:33;99712.59;;;14.98;79.86
80945;BME280;70400;50.934;11.590;2023-07-20T02:43:24;99720.00;;;15.03;79.84
80945;BME280;70400;50.934;11.590;2023-07-20T02:44:15;99718.59;;;14.92;81.31
80945;BME280;70400;50.934;11.590;2023-07-20T02:45:06;99722.06;;;14.93;80.69
80945;BME280;70400;50.934;11.590;2023-07-20T02:45:57;99714.75;;;14.95;79.74
80945;BME280;70400;50.934;11.590;2023-07-20T02:46:48;99715.34;;;15.05;79.87
80945;BME280;70400;50.934;11.590;2023-07-20T02:47:40;99711.34;;;15.09;79.59
80945;BME280;70400;50.934;11.590;2023-07-20T02:48:31;99719.97;;;15.11;79.50
80945;BME280;70400;50.934;11.590;2023-07-20T02:49:22;99708.78;;;15.16;78.58
80945;BME280;70400;50.934;11.590;2023-07-20T02:50:13;99724.41;;;15.11;79.66
80945;BME280;70400;50.934;11.590;2023-07-20T02:51:04;99719.22;;;15.17;79.06
80945;BME280;70400;50.934;11.590;2023-07-20T02:51:55;99715.63;;;15.10;79.49
80945;BME280;70400;50.934;11.590;2023-07-20T02:52:46;99723.97;;;15.07;78.97
80945;BME280;70400;50.934;11.590;2023-07-20T02:53:37;99726.25;;;15.10;78.72
80945;BME280;70400;50.934;11.590;2023-07-20T02:54:28;99728.75;;;15.12;79.22
80945;BME280;70400;50.934;11.590;2023-07-20T02:55:20;99728.38;;;15.15;79.78
80945;BME280;70400;50.934;11.590;2023-07-20T02:56:11;99725.44;;;15.10;79.48
80945;BME280;70400;50.934;11.590;2023-07-20T02:57:02;99726.91;;;15.12;79.34
80945;BME280;70400;50.934;11.590;2023-07-20T02:57:53;99719.31;;;15.09;79.41
80945;BME280;70400;50.934;11.590;2023-07-20T02:58:44;99717.47;;;15.10;80.00
80945;BME280;70400;50.934;11.590;2023-07-20T02:59:36;99717.81;;;15.07;79.82
80945;BME280;70400;50.934;11.590;2023-07-20T03:00:27;99713.63;;;15.12;79.21
80945;BME280;70400;50.934;11.590;2023-07-20T03:01:18;99727.06;;;15.11;79.50
80945;BME280;70400;50.934;11.590;2023-07-20T03:02:09;99718.78;;;15.14;78.94
80945;BME280;70400;50.934;11.590;2023-07-20T03:03:00;99719.75;;;15.13;79.08
80945;BME280;70400;50.934;11.590;2023-07-20T03:03:51;99713.09;;;15.17;79.35
80945;BME280;70400;50.934;11.590;2023-07-20T03:04:41;99708.97;;;15.14;78.40
80945;BME280;70400;50.934;11.590;2023-07-20T03:05:32;99711.00;;;15.27;77.91
80945;BME280;70400;50.934;11.590;2023-07-20T03:06:23;99715.66;;;15.25;78.23
80945;BME280;70400;50.934;11.590;2023-07-20T03:07:14;99709.41;;;15.18;79.15
80945;BME280;70400;50.934;11.590;2023-07-20T03:08:08;99716.19;;;15.20;78.16
80945;BME280;70400;50.934;11.590;2023-07-20T03:08:59;99717.53;;;15.02;79.78
80945;BME280;70400;50.934;11.590;2023-07-20T03:09:50;99713.69;;;15.04;78.49
80945;BME280;70400;50.934;11.590;2023-07-20T03:10:41;99717.28;;;15.11;78.90
80945;BME280;70400;50.934;11.590;2023-07-20T03:11:34;99708.69;;;15.09;78.93
80945;BME280;70400;50.934;11.590;2023-07-20T03:12:25;99717.81;;;15.07;79.79
80945;BME280;70400;50.934;11.590;2023-07-20T03:13:17;99717.53;;;15.02;79.50
80945;BME280;70400;50.934;11.590;2023-07-20T03:14:08;99712.31;;;15.08;78.84
80945;BME280;70400;50.934;11.590;2023-07-20T03:14:58;99719.47;;;15.08;78.95
80945;BME280;70400;50.934;11.590;2023-07-20T03:15:49;99719.53;;;15.00;80.28
80945;BME280;70400;50.934;11.590;2023-07-20T03:16:40;99722.38;;;14.98;79.06
80945;BME280;70400;50.934;11.590;2023-07-20T03:17:30;99717.41;;;14.95;80.28
80945;BME280;70400;50.934;11.590;2023-07-20T03:18:21;99718.97;;;14.89;80.68
80945;BME280;70400;50.934;11.590;2023-07-20T03:19:12;99722.38;;;14.98;80.01
80945;BME280;70400;50.934;11.590;2023-07-20T03:20:05;99718.88;;;14.97;80.15
80945;BME280;70400;50.934;11.590;2023-07-20T03:20:59;99725.88;;;14.98;80.05
80945;BME280;70400;50.934;11.590;2023-07-20T03:21:51;99724.19;;;14.97;79.72
80945;BME280;70400;50.934;11.590;2023-07-20T03:22:42;99727.81;;;15.05;79.63
80945;BME280;70400;50.934;11.590;2023-07-20T03:23:33;99722.19;;;15.00;79.73
80945;BME280;70400;50.934;11.590;2023-07-20T03:24:23;99725.88;;;14.98;80.49
80945;BME280;70400;50.934;11.590;2023-07-20T03:25:15;99729.88;;;14.94;79.28
80945;BME280;70400;50.934;11.590;2023-07-20T03:26:06;99730.03;;;14.93;80.64
80945;BME280;70400;50.934;11.590;2023-07-20T03:26:59;99724.03;;;14.99;79.84
80945;BME280;70400;50.934;11.590;2023-07-20T03:27:50;99729.50;;;14.97;80.25
80945;BME280;70400;50.934;11.590;2023-07-20T03:28:41;99728.22;;;14.93;79.65
80945;BME280;70400;50.934;11.590;2023-07-20T03:29:33;99728.22;;;14.93;80.09
80945;BME280;70400;50.934;11.590;2023-07-20T03:30:24;99730.31;;;14.98;80.48
80945;BME280;70400;50.934;11.590;2023-07-20T03:31:16;99728.53;;;14.98;79.57
80945;BME280;70400;50.934;11.590;2023-07-20T03:32:07;99731.34;;;14.97;79.85
80945;BME280;70400;50.934;11.590;2023-07-20T03:32:58;99728.69;;;14.97;81.08
80945;BME280;70400;50.934;11.590;2023-07-20T03:33:48;99725.56;;;14.93;81.12
80945;BME280;70400;50.934;11.590;2023-07-20T03:34:40;99733.06;;;14.90;79.94
80945;BME280;70400;50.934;11.590;2023-07-20T03:35:31;99728.41;;;14.92;80.69
80945;BME280;70400;50.934;11.590;2023-07-20T03:36:21;99729.72;;;14.96;80.75
80945;BME280;70400;50.934;11.590;2023-07-20T03:37:13;99731.19;;;14.98;79.35
80945;BME280;70400;50.934;11.590;2023-07-20T03:38:04;99739.38;;;15.12;78.69
80945;BME280;70400;50.934;11.590;2023-07-20T03:38:55;99737.53;;;15.12;79.13
80945;BME280;70400;50.934;11.590;2023-07-20T03:39:46;99740.34;;;15.11;80.13
80945;BME280;70400;50.934;11.590;2023-07-20T03:40:36;99736.88;;;15.10;80.02
80945;BME280;70400;50.934;11.590;2023-07-20T03:41:27;99741.53;;;15.08;80.57
80945;BME280;70400;50.934;11.590;2023-07-20T03:42:18;99737.41;;;15.06;79.82
80945;BME280;70400;50.934;11.590;2023-07-20T03:43:08;99737.25;;;15.07;79.76
80945;BME280;70400;50.934;11.590;2023-07-20T03:44:00;99733.22;;;15.11;79.26
80945;BME280;70400;50.934;11.590;2023-07-20T03:44:50;99733.22;;;15.11;79.02
80945;BME280;70400;50.934;11.590;2023-07-20T03:45:41;99731.69;;;15.17;79.86
80945;BME280;70400;50.934;11.590;2023-07-20T03:46:32;99739.91;;;15.07;80.27
80945;BME280;70400;50.934;11.590;2023-07-20T03:47:25;99743.00;;;15.11;78.87
80945;BME280;70400;50.934;11.590;2023-07-20T03:48:17;99740.31;;;15.19;79.25
80945;BME280;70400;50.934;11.590;2023-07-20T03:49:10;99739.81;;;15.15;79.52
80945;BME280;70400;50.934;11.590;2023-07-20T03:50:01;99744.69;;;15.12;80.00
80945;BME280;70400;50.934;11.590;2023-07-20T03:50:53;99742.25;;;15.02;80.30
80945;BME280;70400;50.934;11.590;2023-07-20T03:51:44;99745.38;;;15.06;80.60
80945;BME280;70400;50.934;11.590;2023-07-20T03:52:35;99746.22;;;15.06;80.67
80945;BME280;70400;50.934;11.590;2023-07-20T03:53:27;99748.03;;;15.06;81.22
80945;BME280;70400;50.934;11.590;2023-07-20T03:54:18;99750.97;;;15.11;80.82
80945;BME280;70400;50.934;11.590;2023-07-20T03:55:10;99745.09;;;15.01;81.17
80945;BME280;70400;50.934;11.590;2023-07-20T03:56:01;99744.38;;;15.07;80.92
80945;BME280;70400;50.934;11.590;2023-07-20T03:56:51;99750.81;;;15.12;80.34
80945;BME280;70400;50.934;11.590;2023-07-20T03:57:42;99742.69;;;15.14;80.37
80945;BME280;70400;50.934;11.590;2023-07-20T03:58:33;99746.81;;;15.16;80.04
80945;BME280;70400;50.934;11.590;2023-07-20T03:59:24;99746.81;;;15.16;80.12
80945;BME280;70400;50.934;11.590;2023-07-20T04:00:15;99744.69;;;15.12;80.62
80945;BME280;70400;50.934;11.590;2023-07-20T04:01:07;99745.66;;;15.11;80.89
80945;BME280;70400;50.934;11.590;2023-07-20T04:01:57;99753.31;;;15.14;81.04
80945;BME280;70400;50.934;11.590;2023-07-20T04:02:48;99748.59;;;15.16;79.89
80945;BME280;70400;50.934;11.590;2023-07-20T04:03:39;99751.91;;;15.18;79.98
80945;BME280;70400;50.934;11.590;2023-07-20T04:04:29;99743.50;;;15.14;81.00
80945;BME280;70400;50.934;11.590;2023-07-20T04:05:20;99748.81;;;15.14;80.49
80945;BME280;70400;50.934;11.590;2023-07-20T04:06:12;99747.63;;;15.17;80.99
80945;BME280;70400;50.934;11.590;2023-07-20T04:07:05;99749.16;;;15.11;81.77
80945;BME280;70400;50.934;11.590;2023-07-20T04:07:55;99752.22;;;15.23;80.45
80945;BME280;70400;50.934;11.590;2023-07-20T04:08:46;99744.88;;;15.25;81.01
80945;BME280;70400;50.934;11.590;2023-07-20T04:09:40;99750.84;;;15.27;80.25
80945;BME280;70400;50.934;11.590;2023-07-20T04:10:31;99747.53;;;15.25;81.16
80945;BME280;70400;50.934;11.590;2023-07-20T04:11:22;99748.06;;;15.20;80.47
80945;BME280;70400;50.934;11.590;2023-07-20T04:12:13;99747.38;;;15.27;80.48
80945;BME280;70400;50.934;11.590;2023-07-20T04:13:04;99748.00;;;15.29;80.63
80945;BME280;70400;50.934;11.590;2023-07-20T04:13:55;99751.03;;;15.26;80.45
80945;BME280;70400;50.934;11.590;2023-07-20T04:14:47;99742.69;;;15.29;80.04
80945;BME280;70400;50.934;11.590;2023-07-20T04:15:37;99750.41;;;15.38;80.13
80945;BME280;70400;50.934;11.590;2023-07-20T04:16:28;99751.88;;;15.41;80.40
80945;BME280;70400;50.934;11.590;2023-07-20T04:17:19;99748.28;;;15.34;80.57
80945;BME280;70400;50.934;11.590;2023-07-20T04:18:10;99761.78;;;15.32;80.29
80945;BME280;70400;50.934;11.590;2023-07-20T04:19:00;99748.78;;;15.37;79.54
80945;BME280;70400;50.934;11.590;2023-07-20T04:19:51;99752.91;;;15.40;79.90
80945;BME280;70400;50.934;11.590;2023-07-20T04:20:42;99762.63;;;15.48;79.16
80945;BME280;70400;50.934;11.590;2023-07-20T04:21:40;99759.56;;;15.36;80.45
80945;BME280;70400;50.934;11.590;2023-07-20T04:22:32;99754.44;;;15.34;80.01
80945;BME280;70400;50.934;11.590;2023-07-20T04:23:23;99759.69;;;15.43;79.68
80945;BME280;70400;50.934;11.590;2023-07-20T04:24:14;99751.63;;;15.51;79.06
80945;BME280;70400;50.934;11.590;2023-07-20T04:25:05;99754.75;;;15.54;78.92
80945;BME280;70400;50.934;11.590;2023-07-20T04:25:57;99762.53;;;15.56;79.08
80945;BME280;70400;50.934;11.590;2023-07-20T04:26:47;99762.25;;;15.51;79.66
80945;BME280;70400;50.934;11.590;2023-07-20T04:27:38;99762.78;;;15.46;79.87
80945;BME280;70400;50.934;11.590;2023-07-20T04:28:30;99756.00;;;15.44;80.30
80945;BME280;70400;50.934;11.590;2023-07-20T04:29:21;99758.53;;;15.60;79.42
80945;BME280;70400;50.934;11.590;2023-07-20T04:30:13;99760.13;;;15.84;79.14
80945;BME280;70400;50.934;11.590;2023-07-20T04:31:15;99765.19;;;16.23;76.18
80945;BME280;70400;50.934;11.590;2023-07-20T04:32:07;99758.19;;;16.22;76.80
80945;BME280;70400;50.934;11.590;2023-07-20T04:32:59;99756.56;;;16.21;76.21
80945;BME280;70400;50.934;11.590;2023-07-20T04:33:50;99763.06;;;16.19;76.02
80945;BME280;70400;50.934;11.590;2023-07-20T04:34:42;99758.84;;;16.10;77.11
80945;BME280;70400;50.934;11.590;2023-07-20T04:35:52;99751.41;;;16.05;77.39
80945;BME280;70400;50.934;11.590;2023-07-20T04:36:50;99753.34;;;15.96;77.91
80945;BME280;70400;50.934;11.590;2023-07-20T04:37:41;99754.09;;;15.90;78.01
80945;BME280;70400;50.934;11.590;2023-07-20T04:38:40;99752.34;;;15.82;78.11
80945;BME280;70400;50.934;11.590;2023-07-20T04:39:38;99753.63;;;15.87;77.82
80945;BME280;70400;50.934;11.590;2023-07-20T04:40:33;99754.91;;;15.91;78.13
80945;BME280;70400;50.934;11.590;2023-07-20T04:41:24;99753.78;;;16.00;77.80